Terminal Aerodrome Forecast
Issued by NWS

Home | Current Version | Previous Version | Text Only | Print | Product List | Glossary On
Versions: 1 2 3 4 5 6 7 8 9 10 11 12 13 14 15 16
000
FTUS41 KGYX 240721 AAA
TAFAUG
TAF AMD
KAUG 240721Z 2407/2506 VRB03KT 3SM BR FEW050 OVC100
     FM241200 13005KT 3SM -RA BR SCT007 OVC015
     FM241400 14010KT 2SM RA BR OVC003 WS020/17060KT
     FM241800 16010G18KT 4SM -DZ BR OVC003
     FM242000 19009KT 4SM BR OVC003=

USA.gov is the U.S. government's official web portal to all federal, state and local government web resources and services.